sensor_id;sensor_type;location;lat;lon;timestamp;pressure;altitude;pressure_sealevel;temperature;humidity
75699;BME280;64313;51.018;13.742;2023-11-19T00:02:10;99709.00;;;4.27;76.65
75699;BME280;64313;51.018;13.742;2023-11-19T00:04:38;99703.72;;;4.27;76.88
75699;BME280;64313;51.018;13.742;2023-11-19T00:07:07;99692.34;;;4.26;75.87
75699;BME280;64313;51.018;13.742;2023-11-19T00:09:33;99679.94;;;4.27;75.92
75699;BME280;64313;51.018;13.742;2023-11-19T00:11:59;99658.00;;;4.26;76.69
75699;BME280;64313;51.018;13.742;2023-11-19T00:14:26;99658.00;;;4.26;76.23
75699;BME280;64313;51.018;13.742;2023-11-19T00:16:51;99644.97;;;4.25;76.62
75699;BME280;64313;51.018;13.742;2023-11-19T00:19:16;99631.75;;;4.25;76.48
75699;BME280;64313;51.018;13.742;2023-11-19T00:21:42;99623.84;;;4.25;76.18
75699;BME280;64313;51.018;13.742;2023-11-19T00:24:07;99642.50;;;4.23;76.15
75699;BME280;64313;51.018;13.742;2023-11-19T00:26:33;99640.03;;;4.22;75.89
75699;BME280;64313;51.018;13.742;2023-11-19T00:28:59;99627.00;;;4.20;75.94
75699;BME280;64313;51.018;13.742;2023-11-19T00:31:24;99609.34;;;4.21;75.33
75699;BME280;64313;51.018;13.742;2023-11-19T00:33:51;99617.59;;;4.18;76.43
75699;BME280;64313;51.018;13.742;2023-11-19T00:36:16;99614.97;;;4.18;75.74
75699;BME280;64313;51.018;13.742;2023-11-19T00:38:42;99627.50;;;4.16;75.71
75699;BME280;64313;51.018;13.742;2023-11-19T00:41:07;99611.03;;;4.14;75.47
75699;BME280;64313;51.018;13.742;2023-11-19T00:43:32;99597.00;;;4.13;75.48
75699;BME280;64313;51.018;13.742;2023-11-19T00:45:58;99604.94;;;4.13;76.19
75699;BME280;64313;51.018;13.742;2023-11-19T00:48:23;99599.97;;;4.10;75.50
75699;BME280;64313;51.018;13.742;2023-11-19T00:50:48;99600.78;;;4.11;76.25
75699;BME280;64313;51.018;13.742;2023-11-19T00:53:14;99582.50;;;4.09;75.85
75699;BME280;64313;51.018;13.742;2023-11-19T00:55:40;99585.31;;;4.07;75.50
75699;BME280;64313;51.018;13.742;2023-11-19T00:58:05;99590.78;;;4.06;75.88
75699;BME280;64313;51.018;13.742;2023-11-19T01:00:31;99579.38;;;4.05;76.32
75699;BME280;64313;51.018;13.742;2023-11-19T01:02:57;99573.25;;;4.05;76.01
75699;BME280;64313;51.018;13.742;2023-11-19T01:05:23;99566.34;;;4.04;76.04
75699;BME280;64313;51.018;13.742;2023-11-19T01:07:49;99559.44;;;4.03;75.84
75699;BME280;64313;51.018;13.742;2023-11-19T01:10:15;99557.78;;;4.02;76.22
75699;BME280;64313;51.018;13.742;2023-11-19T01:12:44;99553.50;;;4.01;75.61
75699;BME280;64313;51.018;13.742;2023-11-19T01:15:09;99542.13;;;4.00;76.60
75699;BME280;64313;51.018;13.742;2023-11-19T01:17:37;99522.84;;;4.00;76.30
75699;BME280;64313;51.018;13.742;2023-11-19T01:20:02;99501.88;;;3.98;76.50
75699;BME280;64313;51.018;13.742;2023-11-19T01:22:31;99509.78;;;3.98;75.94
75699;BME280;64313;51.018;13.742;2023-11-19T01:24:56;99515.06;;;3.98;76.75
75699;BME280;64313;51.018;13.742;2023-11-19T01:27:26;99508.97;;;3.98;76.55
75699;BME280;64313;51.018;13.742;2023-11-19T01:29:51;99507.34;;;3.97;76.61
75699;BME280;64313;51.018;13.742;2023-11-19T01:32:17;99504.50;;;3.98;76.83
75699;BME280;64313;51.018;13.742;2023-11-19T01:34:42;99490.50;;;3.98;77.06
75699;BME280;64313;51.018;13.742;2023-11-19T01:37:07;99485.22;;;3.98;77.17
75699;BME280;64313;51.018;13.742;2023-11-19T01:39:36;99491.19;;;4.00;77.70
75699;BME280;64313;51.018;13.742;2023-11-19T01:42:01;99483.25;;;4.00;77.26
75699;BME280;64313;51.018;13.742;2023-11-19T01:44:27;99475.16;;;4.01;76.66
75699;BME280;64313;51.018;13.742;2023-11-19T01:46:52;99483.91;;;4.02;77.41
75699;BME280;64313;51.018;13.742;2023-11-19T01:49:18;99475.81;;;4.03;77.21
75699;BME280;64313;51.018;13.742;2023-11-19T01:51:46;99466.91;;;4.04;77.82
75699;BME280;64313;51.018;13.742;2023-11-19T01:54:12;99453.69;;;4.04;77.04
75699;BME280;64313;51.018;13.742;2023-11-19T01:56:38;99445.63;;;4.06;76.99
75699;BME280;64313;51.018;13.742;2023-11-19T01:59:09;99433.25;;;4.06;76.82
75699;BME280;64313;51.018;13.742;2023-11-19T02:01:36;99443.47;;;4.10;77.58
75699;BME280;64313;51.018;13.742;2023-11-19T02:04:06;99416.44;;;4.07;77.35
75699;BME280;64313;51.018;13.742;2023-11-19T02:07:09;99401.25;;;4.10;77.12
75699;BME280;64313;51.018;13.742;2023-11-19T02:09:34;99393.97;;;4.12;77.81
75699;BME280;64313;51.018;13.742;2023-11-19T02:11:59;99398.28;;;4.13;77.17
75699;BME280;64313;51.018;13.742;2023-11-19T02:14:25;99403.38;;;4.14;78.15
75699;BME280;64313;51.018;13.742;2023-11-19T02:16:52;99399.72;;;4.15;77.38
75699;BME280;64313;51.018;13.742;2023-11-19T02:19:20;99396.91;;;4.17;77.31
75699;BME280;64313;51.018;13.742;2023-11-19T02:21:45;99388.81;;;4.18;77.34
75699;BME280;64313;51.018;13.742;2023-11-19T02:24:11;99365.72;;;4.20;77.63
75699;BME280;64313;51.018;13.742;2023-11-19T02:26:41;99351.53;;;4.21;77.81
75699;BME280;64313;51.018;13.742;2023-11-19T02:29:09;99350.53;;;4.22;77.58
75699;BME280;64313;51.018;13.742;2023-11-19T02:31:35;99349.53;;;4.23;77.85
75699;BME280;64313;51.018;13.742;2023-11-19T02:34:01;99341.41;;;4.25;77.59
75699;BME280;64313;51.018;13.742;2023-11-19T02:36:27;99337.81;;;4.26;77.99
75699;BME280;64313;51.018;13.742;2023-11-19T02:38:53;99336.63;;;4.28;77.78
75699;BME280;64313;51.018;13.742;2023-11-19T02:41:18;99321.41;;;4.30;77.85
75699;BME280;64313;51.018;13.742;2023-11-19T02:43:43;99326.53;;;4.32;77.26
75699;BME280;64313;51.018;13.742;2023-11-19T02:46:08;99314.97;;;4.33;77.39
75699;BME280;64313;51.018;13.742;2023-11-19T02:48:34;99307.69;;;4.35;77.32
75699;BME280;64313;51.018;13.742;2023-11-19T02:51:04;99303.25;;;4.35;77.57
75699;BME280;64313;51.018;13.742;2023-11-19T02:53:30;99291.69;;;4.37;77.47
75699;BME280;64313;51.018;13.742;2023-11-19T02:55:56;99295.94;;;4.38;76.55
75699;BME280;64313;51.018;13.742;2023-11-19T02:58:31;99294.97;;;4.39;77.09
75699;BME280;64313;51.018;13.742;2023-11-19T03:00:56;99281.59;;;4.40;76.48
75699;BME280;64313;51.018;13.742;2023-11-19T03:03:26;99271.66;;;4.42;76.66
75699;BME280;64313;51.018;13.742;2023-11-19T03:06:07;99263.75;;;4.42;76.60
75699;BME280;64313;51.018;13.742;2023-11-19T03:08:35;99246.91;;;4.43;77.12
75699;BME280;64313;51.018;13.742;2023-11-19T03:11:01;99253.00;;;4.44;76.50
75699;BME280;64313;51.018;13.742;2023-11-19T03:13:26;99247.56;;;4.45;76.47
75699;BME280;64313;51.018;13.742;2023-11-19T03:15:52;99248.38;;;4.46;76.61
75699;BME280;64313;51.018;13.742;2023-11-19T03:18:19;99239.44;;;4.47;76.71
75699;BME280;64313;51.018;13.742;2023-11-19T03:20:44;99235.00;;;4.47;76.51
75699;BME280;64313;51.018;13.742;2023-11-19T03:23:11;99232.34;;;4.47;76.10
75699;BME280;64313;51.018;13.742;2023-11-19T03:25:36;99241.72;;;4.50;75.79
75699;BME280;64313;51.018;13.742;2023-11-19T03:28:03;99227.69;;;4.49;75.57
75699;BME280;64313;51.018;13.742;2023-11-19T03:30:31;99215.31;;;4.50;75.57
75699;BME280;64313;51.018;13.742;2023-11-19T03:32:57;99219.63;;;4.51;76.34
75699;BME280;64313;51.018;13.742;2023-11-19T03:35:23;99221.25;;;4.52;75.46
75699;BME280;64313;51.018;13.742;2023-11-19T03:37:49;99218.63;;;4.52;75.43
75699;BME280;64313;51.018;13.742;2023-11-19T03:40:15;99218.44;;;4.53;75.43
75699;BME280;64313;51.018;13.742;2023-11-19T03:42:40;99201.59;;;4.54;75.12
75699;BME280;64313;51.018;13.742;2023-11-19T03:45:06;99200.56;;;4.55;75.62
75699;BME280;64313;51.018;13.742;2023-11-19T03:47:34;99193.47;;;4.56;75.68
75699;BME280;64313;51.018;13.742;2023-11-19T03:49:59;99188.03;;;4.57;75.87
75699;BME280;64313;51.018;13.742;2023-11-19T03:52:24;99170.34;;;4.58;75.33
75699;BME280;64313;51.018;13.742;2023-11-19T03:54:52;99166.72;;;4.59;75.62
75699;BME280;64313;51.018;13.742;2023-11-19T03:57:18;99170.16;;;4.59;75.28
75699;BME280;64313;51.018;13.742;2023-11-19T03:59:43;99155.97;;;4.60;76.14
75699;BME280;64313;51.018;13.742;2023-11-19T04:02:09;99147.03;;;4.61;76.79
75699;BME280;64313;51.018;13.742;2023-11-19T04:04:34;99144.38;;;4.61;76.36
75699;BME280;64313;51.018;13.742;2023-11-19T04:07:00;99140.75;;;4.62;76.07
75699;BME280;64313;51.018;13.742;2023-11-19T04:09:26;99149.47;;;4.63;76.59
75699;BME280;64313;51.018;13.742;2023-11-19T04:11:52;99152.31;;;4.61;76.74
75699;BME280;64313;51.018;13.742;2023-11-19T04:14:17;99140.75;;;4.62;76.57
75699;BME280;64313;51.018;13.742;2023-11-19T04:16:44;99130.19;;;4.62;77.08
75699;BME280;64313;51.018;13.742;2023-11-19T04:19:10;99120.63;;;4.61;76.82
75699;BME280;64313;51.018;13.742;2023-11-19T04:21:35;99133.63;;;4.63;76.28
75699;BME280;64313;51.018;13.742;2023-11-19T04:24:00;99131.00;;;4.63;76.01
75699;BME280;64313;51.018;13.742;2023-11-19T04:26:26;99136.28;;;4.63;76.15
75699;BME280;64313;51.018;13.742;2023-11-19T04:28:52;99136.28;;;4.63;76.38
75699;BME280;64313;51.018;13.742;2023-11-19T04:31:19;99132.00;;;4.62;76.52
75699;BME280;64313;51.018;13.742;2023-11-19T04:33:44;99121.44;;;4.62;76.46
75699;BME280;64313;51.018;13.742;2023-11-19T04:36:10;99119.63;;;4.62;76.71
75699;BME280;64313;51.018;13.742;2023-11-19T04:38:35;99111.69;;;4.62;77.09
75699;BME280;64313;51.018;13.742;2023-11-19T04:41:01;99103.78;;;4.62;78.62
75699;BME280;64313;51.018;13.742;2023-11-19T04:43:26;99104.78;;;4.61;78.10
75699;BME280;64313;51.018;13.742;2023-11-19T04:45:52;99098.69;;;4.61;77.91
75699;BME280;64313;51.018;13.742;2023-11-19T04:48:17;99098.06;;;4.59;78.38
75699;BME280;64313;51.018;13.742;2023-11-19T04:50:42;99098.88;;;4.59;78.56
75699;BME280;64313;51.018;13.742;2023-11-19T04:53:07;99094.59;;;4.58;78.08
75699;BME280;64313;51.018;13.742;2023-11-19T04:55:33;99092.97;;;4.57;79.35
75699;BME280;64313;51.018;13.742;2023-11-19T04:57:58;99082.41;;;4.57;79.10
75699;BME280;64313;51.018;13.742;2023-11-19T05:00:23;99069.34;;;4.56;78.66
75699;BME280;64313;51.018;13.742;2023-11-19T05:02:49;99079.09;;;4.55;79.21
75699;BME280;64313;51.018;13.742;2023-11-19T05:05:15;99088.03;;;4.54;79.95
75699;BME280;64313;51.018;13.742;2023-11-19T05:07:40;99082.94;;;4.53;79.72
75699;BME280;64313;51.018;13.742;2023-11-19T05:10:06;99075.03;;;4.53;78.78
75699;BME280;64313;51.018;13.742;2023-11-19T05:12:32;99066.28;;;4.52;80.35
75699;BME280;64313;51.018;13.742;2023-11-19T05:14:57;99058.56;;;4.51;80.15
75699;BME280;64313;51.018;13.742;2023-11-19T05:17:23;99056.91;;;4.50;80.45
75699;BME280;64313;51.018;13.742;2023-11-19T05:19:48;99059.53;;;4.50;80.11
75699;BME280;64313;51.018;13.742;2023-11-19T05:22:14;99057.91;;;4.49;80.88
75699;BME280;64313;51.018;13.742;2023-11-19T05:24:39;99053.44;;;4.49;80.03
75699;BME280;64313;51.018;13.742;2023-11-19T05:27:06;99041.25;;;4.48;80.92
75699;BME280;64313;51.018;13.742;2023-11-19T05:29:33;99039.63;;;4.47;81.38
75699;BME280;64313;51.018;13.742;2023-11-19T05:31:58;99036.97;;;4.47;81.29
75699;BME280;64313;51.018;13.742;2023-11-19T05:34:23;99033.72;;;4.45;81.81
75699;BME280;64313;51.018;13.742;2023-11-19T05:36:50;99025.94;;;4.44;82.31
75699;BME280;64313;51.018;13.742;2023-11-19T05:39:15;99030.41;;;4.43;81.41
75699;BME280;64313;51.018;13.742;2023-11-19T05:41:41;99029.59;;;4.43;81.81
75699;BME280;64313;51.018;13.742;2023-11-19T05:44:06;99027.63;;;4.45;81.19
75699;BME280;64313;51.018;13.742;2023-11-19T05:46:31;99033.06;;;4.43;82.22
75699;BME280;64313;51.018;13.742;2023-11-19T05:48:57;99023.31;;;4.44;81.69
75699;BME280;64313;51.018;13.742;2023-11-19T05:51:22;99011.94;;;4.43;82.42
75699;BME280;64313;51.018;13.742;2023-11-19T05:53:49;98999.75;;;4.42;82.03
75699;BME280;64313;51.018;13.742;2023-11-19T05:56:15;99006.84;;;4.42;82.14
75699;BME280;64313;51.018;13.742;2023-11-19T05:58:46;99027.16;;;4.41;82.22
75699;BME280;64313;51.018;13.742;2023-11-19T06:01:14;99007.03;;;4.40;82.55
75699;BME280;64313;51.018;13.742;2023-11-19T06:03:39;99006.22;;;4.40;82.26
75699;BME280;64313;51.018;13.742;2023-11-19T06:06:05;99012.31;;;4.40;82.78
75699;BME280;64313;51.018;13.742;2023-11-19T06:08:30;98998.31;;;4.40;82.26
75699;BME280;64313;51.018;13.742;2023-11-19T06:10:55;98992.22;;;4.39;82.24
75699;BME280;64313;51.018;13.742;2023-11-19T06:13:21;98991.19;;;4.40;81.63
75699;BME280;64313;51.018;13.742;2023-11-19T06:15:46;98977.38;;;4.38;82.65
75699;BME280;64313;51.018;13.742;2023-11-19T06:18:12;98966.81;;;4.38;82.07
75699;BME280;64313;51.018;13.742;2023-11-19T06:20:38;98972.91;;;4.39;82.43
75699;BME280;64313;51.018;13.742;2023-11-19T06:23:03;98969.47;;;4.38;82.25
75699;BME280;64313;51.018;13.742;2023-11-19T06:25:28;98953.78;;;4.37;82.78
75699;BME280;64313;51.018;13.742;2023-11-19T06:27:54;98955.81;;;4.34;82.32
75699;BME280;64313;51.018;13.742;2023-11-19T06:30:19;98949.72;;;4.34;81.74
75699;BME280;64313;51.018;13.742;2023-11-19T06:32:45;98935.88;;;4.32;82.68
75699;BME280;64313;51.018;13.742;2023-11-19T06:35:11;98936.72;;;4.32;82.92
75699;BME280;64313;51.018;13.742;2023-11-19T06:37:39;98935.88;;;4.32;82.93
75699;BME280;64313;51.018;13.742;2023-11-19T06:40:05;98943.81;;;4.32;82.57
75699;BME280;64313;51.018;13.742;2023-11-19T06:42:30;98950.06;;;4.31;81.98
75699;BME280;64313;51.018;13.742;2023-11-19T06:44:56;98944.78;;;4.31;83.19
75699;BME280;64313;51.018;13.742;2023-11-19T06:47:25;98943.16;;;4.30;83.50
75699;BME280;64313;51.018;13.742;2023-11-19T06:49:52;98936.88;;;4.31;83.75
75699;BME280;64313;51.018;13.742;2023-11-19T06:52:17;98952.53;;;4.32;82.90
75699;BME280;64313;51.018;13.742;2023-11-19T06:54:42;98950.88;;;4.31;83.61
75699;BME280;64313;51.018;13.742;2023-11-19T06:57:07;98942.78;;;4.33;82.30
75699;BME280;64313;51.018;13.742;2023-11-19T06:59:34;98948.06;;;4.33;83.29
75699;BME280;64313;51.018;13.742;2023-11-19T07:02:00;98948.91;;;4.33;83.86
75699;BME280;64313;51.018;13.742;2023-11-19T07:04:25;98936.50;;;4.34;84.31
75699;BME280;64313;51.018;13.742;2023-11-19T07:06:50;98951.97;;;4.37;83.95
75699;BME280;64313;51.018;13.742;2023-11-19T07:09:17;98932.66;;;4.37;84.33
75699;BME280;64313;51.018;13.742;2023-11-19T07:11:43;98939.56;;;4.38;84.13
75699;BME280;64313;51.018;13.742;2023-11-19T07:14:11;98953.63;;;4.38;84.50
75699;BME280;64313;51.018;13.742;2023-11-19T07:16:36;98947.34;;;4.39;83.23
75699;BME280;64313;51.018;13.742;2023-11-19T07:19:05;98961.16;;;4.41;85.09
75699;BME280;64313;51.018;13.742;2023-11-19T07:21:31;98961.16;;;4.41;84.16
75699;BME280;64313;51.018;13.742;2023-11-19T07:23:58;98968.88;;;4.43;84.52
75699;BME280;64313;51.018;13.742;2023-11-19T07:26:23;98970.50;;;4.44;84.31
75699;BME280;64313;51.018;13.742;2023-11-19T07:28:51;98965.88;;;4.46;84.47
75699;BME280;64313;51.018;13.742;2023-11-19T07:31:17;98976.25;;;4.47;84.38
75699;BME280;64313;51.018;13.742;2023-11-19T07:33:46;98955.13;;;4.47;84.73
75699;BME280;64313;51.018;13.742;2023-11-19T07:36:12;98974.22;;;4.49;84.82
75699;BME280;64313;51.018;13.742;2023-11-19T07:38:38;98968.78;;;4.51;84.61
75699;BME280;64313;51.018;13.742;2023-11-19T07:41:07;98965.13;;;4.52;84.69
75699;BME280;64313;51.018;13.742;2023-11-19T07:43:35;98962.31;;;4.53;85.44
75699;BME280;64313;51.018;13.742;2023-11-19T07:46:00;98958.66;;;4.54;84.92
75699;BME280;64313;51.018;13.742;2023-11-19T07:48:27;98956.63;;;4.56;84.87
75699;BME280;64313;51.018;13.742;2023-11-19T07:50:52;98962.56;;;4.58;84.47
75699;BME280;64313;51.018;13.742;2023-11-19T07:53:18;98963.19;;;4.60;85.20
75699;BME280;64313;51.018;13.742;2023-11-19T07:55:44;98967.47;;;4.61;85.25
75699;BME280;64313;51.018;13.742;2023-11-19T07:58:12;98961.00;;;4.64;84.88
75699;BME280;64313;51.018;13.742;2023-11-19T08:00:38;98968.72;;;4.66;85.83
75699;BME280;64313;51.018;13.742;2023-11-19T08:03:04;98948.22;;;4.68;85.22
75699;BME280;64313;51.018;13.742;2023-11-19T08:05:30;98959.41;;;4.70;85.74
75699;BME280;64313;51.018;13.742;2023-11-19T08:07:55;98963.50;;;4.72;86.33
75699;BME280;64313;51.018;13.742;2023-11-19T08:10:21;98979.97;;;4.74;85.80
75699;BME280;64313;51.018;13.742;2023-11-19T08:12:46;98982.41;;;4.76;85.73
75699;BME280;64313;51.018;13.742;2023-11-19T08:15:11;98971.69;;;4.77;85.94
75699;BME280;64313;51.018;13.742;2023-11-19T08:17:37;98965.19;;;4.80;86.58
75699;BME280;64313;51.018;13.742;2023-11-19T08:20:03;98961.34;;;4.82;86.31
75699;BME280;64313;51.018;13.742;2023-11-19T08:22:30;98946.97;;;4.85;86.21
75699;BME280;64313;51.018;13.742;2023-11-19T08:24:55;98941.28;;;4.88;86.43
75699;BME280;64313;51.018;13.742;2023-11-19T08:27:22;98931.19;;;4.92;86.87
75699;BME280;64313;51.018;13.742;2023-11-19T08:29:55;98933.25;;;4.96;87.50
75699;BME280;64313;51.018;13.742;2023-11-19T08:32:24;98936.13;;;5.01;87.77
75699;BME280;64313;51.018;13.742;2023-11-19T08:34:49;98919.94;;;5.11;89.03
75699;BME280;64313;51.018;13.742;2023-11-19T08:37:14;98924.72;;;5.22;89.84
75699;BME280;64313;51.018;13.742;2023-11-19T08:39:40;98918.91;;;5.40;91.32
75699;BME280;64313;51.018;13.742;2023-11-19T08:42:08;98930.81;;;5.57;91.68
75699;BME280;64313;51.018;13.742;2023-11-19T08:44:33;98938.22;;;5.68;91.68
75699;BME280;64313;51.018;13.742;2023-11-19T08:46:58;98946.41;;;5.74;89.64
75699;BME280;64313;51.018;13.742;2023-11-19T08:49:24;98941.31;;;5.79;89.51
75699;BME280;64313;51.018;13.742;2023-11-19T08:51:49;98944.63;;;5.87;89.18
75699;BME280;64313;51.018;13.742;2023-11-19T08:54:14;98935.31;;;5.91;89.36
75699;BME280;64313;51.018;13.742;2023-11-19T08:56:40;98944.69;;;5.94;88.42
75699;BME280;64313;51.018;13.742;2023-11-19T08:59:05;98933.91;;;5.95;88.32
75699;BME280;64313;51.018;13.742;2023-11-19T09:01:31;98944.31;;;6.04;89.99
75699;BME280;64313;51.018;13.742;2023-11-19T09:03:56;98942.34;;;6.12;90.06
75699;BME280;64313;51.018;13.742;2023-11-19T09:06:22;98937.50;;;6.36;92.27
75699;BME280;64313;51.018;13.742;2023-11-19T09:08:48;98946.13;;;6.51;92.39
75699;BME280;64313;51.018;13.742;2023-11-19T09:11:13;98962.44;;;6.74;92.67
75699;BME280;64313;51.018;13.742;2023-11-19T09:13:38;98963.91;;;6.90;92.86
75699;BME280;64313;51.018;13.742;2023-11-19T09:16:04;98955.34;;;7.01;92.58
75699;BME280;64313;51.018;13.742;2023-11-19T09:18:30;98955.56;;;7.13;92.71
75699;BME280;64313;51.018;13.742;2023-11-19T09:20:55;98955.56;;;7.20;92.60
75699;BME280;64313;51.018;13.742;2023-11-19T09:23:20;98951.47;;;7.30;92.47
75699;BME280;64313;51.018;13.742;2023-11-19T09:25:46;98945.97;;;7.39;92.35
75699;BME280;64313;51.018;13.742;2023-11-19T09:28:11;98959.22;;;7.45;91.78
75699;BME280;64313;51.018;13.742;2023-11-19T09:30:38;98966.56;;;7.50;91.79
75699;BME280;64313;51.018;13.742;2023-11-19T09:33:03;98950.84;;;7.55;91.98
75699;BME280;64313;51.018;13.742;2023-11-19T09:35:29;98941.25;;;7.60;91.56
75699;BME280;64313;51.018;13.742;2023-11-19T09:37:54;98948.78;;;7.64;91.39
75699;BME280;64313;51.018;13.742;2023-11-19T09:40:19;98942.03;;;7.68;91.19
75699;BME280;64313;51.018;13.742;2023-11-19T09:42:45;98938.75;;;7.72;91.88
75699;BME280;64313;51.018;13.742;2023-11-19T09:45:15;98946.09;;;7.77;91.53
75699;BME280;64313;51.018;13.742;2023-11-19T09:47:44;98963.25;;;7.81;91.56
75699;BME280;64313;51.018;13.742;2023-11-19T09:50:16;98964.44;;;7.85;91.42
75699;BME280;64313;51.018;13.742;2023-11-19T09:52:42;98951.38;;;7.90;90.94
75699;BME280;64313;51.018;13.742;2023-11-19T09:55:08;98954.81;;;7.97;91.03
75699;BME280;64313;51.018;13.742;2023-11-19T09:57:34;98953.16;;;8.03;91.03
75699;BME280;64313;51.018;13.742;2023-11-19T10:00:02;98937.41;;;8.08;90.83
75699;BME280;64313;51.018;13.742;2023-11-19T10:02:31;98941.88;;;8.14;91.01
75699;BME280;64313;51.018;13.742;2023-11-19T10:04:59;98946.34;;;8.20;90.79
75699;BME280;64313;51.018;13.742;2023-11-19T10:07:24;98946.56;;;8.25;90.53
75699;BME280;64313;51.018;13.742;2023-11-19T10:09:50;98928.50;;;8.34;90.10
75699;BME280;64313;51.018;13.742;2023-11-19T10:12:15;98942.00;;;8.39;89.77
75699;BME280;64313;51.018;13.742;2023-11-19T10:14:42;98934.41;;;8.43;88.46
75699;BME280;64313;51.018;13.742;2023-11-19T10:17:08;98931.56;;;8.44;88.79
75699;BME280;64313;51.018;13.742;2023-11-19T10:19:34;98932.53;;;8.50;89.05
75699;BME280;64313;51.018;13.742;2023-11-19T10:22:06;98931.09;;;8.54;88.76
75699;BME280;64313;51.018;13.742;2023-11-19T10:24:32;98924.34;;;8.58;88.79
75699;BME280;64313;51.018;13.742;2023-11-19T10:26:59;98919.16;;;8.63;88.34
75699;BME280;64313;51.018;13.742;2023-11-19T10:29:24;98923.03;;;8.67;87.40
75699;BME280;64313;51.018;13.742;2023-11-19T10:31:57;98930.16;;;8.73;87.07
75699;BME280;64313;51.018;13.742;2023-11-19T10:34:26;98922.75;;;8.75;86.95
75699;BME280;64313;51.018;13.742;2023-11-19T10:36:52;98924.78;;;8.80;86.83
75699;BME280;64313;51.018;13.742;2023-11-19T10:39:17;98932.94;;;8.85;86.30
75699;BME280;64313;51.018;13.742;2023-11-19T10:41:43;98926.16;;;8.89;85.88
75699;BME280;64313;51.018;13.742;2023-11-19T10:44:08;98922.03;;;8.93;85.88
75699;BME280;64313;51.018;13.742;2023-11-19T10:46:40;98925.09;;;8.97;85.98
75699;BME280;64313;51.018;13.742;2023-11-19T10:49:06;98922.38;;;9.03;85.75
75699;BME280;64313;51.018;13.742;2023-11-19T10:51:32;98917.81;;;9.10;84.94
75699;BME280;64313;51.018;13.742;2023-11-19T10:57:46;98917.91;;;9.22;86.00
75699;BME280;64313;51.018;13.742;2023-11-19T11:00:16;98920.13;;;9.25;85.82
75699;BME280;64313;51.018;13.742;2023-11-19T11:02:45;98922.94;;;9.30;85.05
75699;BME280;64313;51.018;13.742;2023-11-19T11:05:13;98917.19;;;9.33;84.76
75699;BME280;64313;51.018;13.742;2023-11-19T11:07:40;98925.09;;;9.40;83.81
75699;BME280;64313;51.018;13.742;2023-11-19T11:10:07;98926.31;;;9.44;84.67
75699;BME280;64313;51.018;13.742;2023-11-19T11:12:36;98921.78;;;9.44;84.93
75699;BME280;64313;51.018;13.742;2023-11-19T11:15:04;98915.44;;;9.45;84.16
75699;BME280;64313;51.018;13.742;2023-11-19T11:17:31;98912.56;;;9.47;84.13
75699;BME280;64313;51.018;13.742;2023-11-19T11:19:57;98908.66;;;9.49;83.70
75699;BME280;64313;51.018;13.742;2023-11-19T11:22:23;98913.75;;;9.51;83.56
75699;BME280;64313;51.018;13.742;2023-11-19T11:30:14;98920.25;;;9.55;83.15
75699;BME280;64313;51.018;13.742;2023-11-19T11:32:54;98930.69;;;9.57;83.11
75699;BME280;64313;51.018;13.742;2023-11-19T11:38:04;98931.88;;;9.61;82.78
75699;BME280;64313;51.018;13.742;2023-11-19T11:40:32;98931.88;;;9.61;82.66
75699;BME280;64313;51.018;13.742;2023-11-19T11:42:57;98923.44;;;9.64;82.05
75699;BME280;64313;51.018;13.742;2023-11-19T11:45:43;98906.44;;;9.65;81.54
75699;BME280;64313;51.018;13.742;2023-11-19T11:48:11;98898.00;;;9.68;81.67
75699;BME280;64313;51.018;13.742;2023-11-19T11:50:48;98894.31;;;9.69;81.45
75699;BME280;64313;51.018;13.742;2023-11-19T11:53:19;98894.69;;;9.72;81.53
75699;BME280;64313;51.018;13.742;2023-11-19T11:58:13;98899.09;;;9.78;79.84
75699;BME280;64313;51.018;13.742;2023-11-19T12:00:40;98899.03;;;9.85;79.93
75699;BME280;64313;51.018;13.742;2023-11-19T12:03:07;98897.31;;;9.91;79.50
75699;BME280;64313;51.018;13.742;2023-11-19T12:05:38;98898.66;;;10.00;78.72
75699;BME280;64313;51.018;13.742;2023-11-19T12:08:05;98887.69;;;10.08;78.08
75699;BME280;64313;51.018;13.742;2023-11-19T12:10:37;98904.16;;;10.17;77.72
75699;BME280;64313;51.018;13.742;2023-11-19T12:13:08;98891.16;;;10.27;77.10
75699;BME280;64313;51.018;13.742;2023-11-19T12:18:27;98891.13;;;10.45;76.69
75699;BME280;64313;51.018;13.742;2023-11-19T12:20:53;98881.75;;;10.54;77.20
75699;BME280;64313;51.018;13.742;2023-11-19T12:23:18;98872.41;;;10.64;77.17
75699;BME280;64313;51.018;13.742;2023-11-19T12:25:43;98880.31;;;10.70;74.77
75699;BME280;64313;51.018;13.742;2023-11-19T12:28:16;98863.38;;;10.76;74.82
75699;BME280;64313;51.018;13.742;2023-11-19T12:30:42;98865.94;;;10.83;74.58
75699;BME280;64313;51.018;13.742;2023-11-19T12:33:09;98865.84;;;10.90;73.20
75699;BME280;64313;51.018;13.742;2023-11-19T12:35:42;98860.38;;;10.96;72.81
75699;BME280;64313;51.018;13.742;2023-11-19T12:38:08;98866.41;;;11.03;72.92
75699;BME280;64313;51.018;13.742;2023-11-19T12:40:34;98867.34;;;11.09;73.25
75699;BME280;64313;51.018;13.742;2023-11-19T12:42:59;98869.31;;;11.13;72.97
75699;BME280;64313;51.018;13.742;2023-11-19T12:45:34;98854.47;;;11.18;72.40
75699;BME280;64313;51.018;13.742;2023-11-19T12:48:07;98857.25;;;11.23;72.19
75699;BME280;64313;51.018;13.742;2023-11-19T12:50:55;98859.25;;;11.27;73.01
75699;BME280;64313;51.018;13.742;2023-11-19T12:53:21;98844.84;;;11.28;71.19
75699;BME280;64313;51.018;13.742;2023-11-19T12:55:48;98846.78;;;11.33;71.71
75699;BME280;64313;51.018;13.742;2023-11-19T12:58:33;98851.69;;;11.36;71.95
75699;BME280;64313;51.018;13.742;2023-11-19T13:01:04;98844.25;;;11.38;71.67
75699;BME280;64313;51.018;13.742;2023-11-19T13:03:34;98833.91;;;11.42;71.07
75699;BME280;64313;51.018;13.742;2023-11-19T13:06:04;98834.25;;;11.45;70.98
75699;BME280;64313;51.018;13.742;2023-11-19T13:11:03;98841.31;;;11.51;70.78
75699;BME280;64313;51.018;13.742;2023-11-19T13:13:29;98845.59;;;11.52;70.96
75699;BME280;64313;51.018;13.742;2023-11-19T13:16:04;98830.44;;;11.53;70.21
75699;BME280;64313;51.018;13.742;2023-11-19T13:18:34;98839.25;;;11.53;69.53